createdAt,value
2023-05-19T00:01:25.159Z,12.10
2023-05-19T00:03:55.981Z,12.13
2023-05-19T00:06:25.565Z,12.14
2023-05-19T00:09:07.663Z,12.08
2023-05-19T00:11:36.806Z,12.09
2023-05-19T00:14:07.305Z,12.11
2023-05-19T00:16:35.249Z,12.12
2023-05-19T00:19:05.487Z,12.11
2023-05-19T00:21:33.392Z,12.10
2023-05-19T00:24:01.432Z,12.10
2023-05-19T00:26:29.015Z,12.06
2023-05-19T00:28:56.903Z,12.05
2023-05-19T00:31:24.498Z,12.07
2023-05-19T00:33:52.443Z,12.02
2023-05-19T00:36:20.507Z,12.00
2023-05-19T00:38:48.118Z,11.95
2023-05-19T00:41:15.789Z,11.91
2023-05-19T00:43:43.753Z,11.91
2023-05-19T00:46:11.415Z,11.94
2023-05-19T00:48:39.318Z,11.97
2023-05-19T00:51:07.419Z,11.95
2023-05-19T00:53:35.584Z,11.94
2023-05-19T00:56:03.565Z,11.91
2023-05-19T00:58:32.812Z,11.86
2023-05-19T01:01:07.007Z,11.82
2023-05-19T01:03:36.329Z,11.84
2023-05-19T01:06:07.849Z,11.83
2023-05-19T01:08:38.197Z,11.84
2023-05-19T01:11:06.970Z,11.85
2023-05-19T01:13:36.340Z,11.84
2023-05-19T01:16:24.895Z,11.87
2023-05-19T01:19:01.764Z,11.87
2023-05-19T01:21:47.989Z,11.80
2023-05-19T01:24:30.575Z,11.82
2023-05-19T01:27:21.149Z,11.82
2023-05-19T01:30:09.544Z,11.80
2023-05-19T01:32:41.414Z,11.86
2023-05-19T01:35:10.616Z,11.86
2023-05-19T01:37:39.915Z,11.89
2023-05-19T01:40:10.923Z,11.84
2023-05-19T01:42:40.623Z,11.77
2023-05-19T01:45:11.841Z,11.78
2023-05-19T01:47:43.625Z,11.71
2023-05-19T01:50:11.485Z,11.70
2023-05-19T01:52:39.557Z,11.66
2023-05-19T01:55:09.005Z,11.66
2023-05-19T01:57:54.829Z,11.68
2023-05-19T02:00:58.958Z,11.67
2023-05-19T02:03:38.138Z,11.58
2023-05-19T02:06:24.596Z,11.47
2023-05-19T02:08:58.819Z,11.40
2023-05-19T02:11:42.313Z,11.32
2023-05-19T02:14:20.118Z,11.24
2023-05-19T02:16:48.905Z,11.23
2023-05-19T02:19:32.125Z,11.22
2023-05-19T02:22:00.126Z,11.20
2023-05-19T02:24:27.698Z,11.22
2023-05-19T02:26:55.306Z,11.20
2023-05-19T02:29:23.208Z,11.19
2023-05-19T02:31:51.374Z,11.22
2023-05-19T02:34:19.747Z,11.23
2023-05-19T02:36:49.962Z,11.25
2023-05-19T02:39:17.716Z,11.25
2023-05-19T02:41:45.393Z,11.27
2023-05-19T02:44:13.258Z,11.22
2023-05-19T02:46:41.032Z,11.16
2023-05-19T02:49:08.625Z,11.16
2023-05-19T02:51:36.436Z,11.16
2023-05-19T02:54:04.106Z,11.17
2023-05-19T02:56:31.728Z,11.17
2023-05-19T02:58:59.649Z,11.16
2023-05-19T03:01:27.264Z,11.15
2023-05-19T03:03:54.962Z,11.21
2023-05-19T03:06:23.528Z,11.23
2023-05-19T03:08:51.277Z,11.21
2023-05-19T03:11:18.833Z,11.20
2023-05-19T03:13:46.778Z,11.12
2023-05-19T03:16:14.596Z,11.14
2023-05-19T03:18:42.236Z,11.11
2023-05-19T03:21:10.074Z,11.13
2023-05-19T03:23:37.630Z,11.12
2023-05-19T03:26:05.493Z,11.15
2023-05-19T03:28:33.439Z,11.15
2023-05-19T03:31:01.057Z,11.14
2023-05-19T03:33:30.042Z,11.15
2023-05-19T03:35:58.086Z,11.15
2023-05-19T03:38:25.894Z,11.17
2023-05-19T03:40:53.877Z,11.18
2023-05-19T03:43:21.926Z,11.20
2023-05-19T03:45:49.895Z,11.23
2023-05-19T03:48:21.118Z,11.27
2023-05-19T03:50:50.225Z,11.29
2023-05-19T03:53:17.955Z,11.31
2023-05-19T03:55:46.362Z,11.34
2023-05-19T03:58:14.688Z,11.31
2023-05-19T04:00:42.800Z,11.35
2023-05-19T04:03:10.797Z,11.36
2023-05-19T04:05:38.622Z,11.38
2023-05-19T04:08:06.244Z,11.41
2023-05-19T04:10:34.620Z,11.43
2023-05-19T04:13:02.267Z,11.44
2023-05-19T04:15:29.861Z,11.50
2023-05-19T04:17:57.838Z,11.55
2023-05-19T04:20:25.605Z,11.61
2023-05-19T04:22:53.198Z,11.66
2023-05-19T04:25:21.200Z,11.72
2023-05-19T04:27:49.313Z,11.76
2023-05-19T04:30:22.447Z,11.80
2023-05-19T04:32:51.255Z,11.79
2023-05-19T04:35:19.631Z,11.83
2023-05-19T04:37:47.445Z,11.88
2023-05-19T04:40:16.020Z,11.94
2023-05-19T04:42:46.091Z,11.97
2023-05-19T04:45:14.211Z,12.02
2023-05-19T04:47:42.539Z,12.06
2023-05-19T04:50:11.412Z,12.12
2023-05-19T04:52:39.008Z,12.16
2023-05-19T04:55:07.730Z,12.19
2023-05-19T04:57:35.776Z,12.22
2023-05-19T05:00:09.021Z,12.30
2023-05-19T05:02:37.898Z,12.39
2023-05-19T05:05:06.018Z,12.47
2023-05-19T05:07:33.593Z,12.54
2023-05-19T05:10:01.742Z,12.60
2023-05-19T05:12:31.040Z,12.66
2023-05-19T05:14:59.048Z,12.75
2023-05-19T05:17:28.370Z,12.82
2023-05-19T05:19:56.288Z,12.86
2023-05-19T05:22:24.123Z,12.88
2023-05-19T05:24:53.052Z,12.83
2023-05-19T05:27:21.499Z,12.88
2023-05-19T05:29:50.610Z,13.00
2023-05-19T05:32:20.443Z,13.07
2023-05-19T05:34:48.114Z,13.13
2023-05-19T05:37:16.106Z,13.17
2023-05-19T05:39:43.989Z,13.18
2023-05-19T05:42:12.098Z,13.22
2023-05-19T05:44:40.618Z,13.18
2023-05-19T05:47:08.991Z,13.21
2023-05-19T05:49:38.206Z,13.23
2023-05-19T05:52:08.431Z,13.30
2023-05-19T05:54:38.263Z,13.37
2023-05-19T05:57:06.501Z,13.43
2023-05-19T05:59:34.163Z,13.50
2023-05-19T06:02:02.137Z,13.56
2023-05-19T06:04:31.125Z,13.60
2023-05-19T06:07:01.708Z,13.66
2023-05-19T06:09:30.815Z,13.76
2023-05-19T06:12:00.334Z,13.75
2023-05-19T06:14:28.785Z,13.83
2023-05-19T06:17:03.936Z,13.88
2023-05-19T06:19:32.110Z,13.94
2023-05-19T06:22:00.008Z,14.06
2023-05-19T06:24:27.727Z,14.11
2023-05-19T06:26:55.327Z,14.18
2023-05-19T06:29:23.240Z,14.22
2023-05-19T06:31:51.620Z,14.27
2023-05-19T06:34:21.120Z,14.35
2023-05-19T06:36:49.176Z,14.40
2023-05-19T06:39:16.961Z,14.40
2023-05-19T06:41:44.573Z,14.44
2023-05-19T06:44:23.576Z,14.37
2023-05-19T06:46:51.238Z,14.39
2023-05-19T06:49:20.078Z,14.40
2023-05-19T06:51:49.297Z,14.39
2023-05-19T06:54:17.028Z,14.38
2023-05-19T06:56:45.315Z,14.38
2023-05-19T06:59:13.977Z,14.38
2023-05-19T07:01:41.572Z,14.39
2023-05-19T07:04:09.493Z,14.44
2023-05-19T07:06:37.278Z,14.50
2023-05-19T07:09:05.570Z,14.61
2023-05-19T07:11:33.840Z,14.70
2023-05-19T07:14:02.272Z,14.77
2023-05-19T07:16:31.413Z,14.86
2023-05-19T07:18:59.957Z,14.91
2023-05-19T07:21:27.528Z,14.94
2023-05-19T07:23:55.173Z,14.98
2023-05-19T07:26:23.682Z,14.97
2023-05-19T07:28:51.990Z,14.97
2023-05-19T07:31:19.664Z,14.96
2023-05-19T07:33:47.585Z,14.96
2023-05-19T07:36:15.216Z,14.95
2023-05-19T07:38:42.790Z,14.96
2023-05-19T07:41:11.071Z,14.98
2023-05-19T07:43:38.740Z,14.98
2023-05-19T07:46:06.511Z,15.01
2023-05-19T07:48:34.369Z,15.05
2023-05-19T07:51:02.557Z,15.08
2023-05-19T07:53:30.196Z,15.09
2023-05-19T07:55:58.790Z,15.07
2023-05-19T07:58:26.774Z,15.07
2023-05-19T08:00:59.564Z,15.14
2023-05-19T08:03:27.896Z,15.17
2023-05-19T08:05:55.627Z,15.21
2023-05-19T08:08:23.368Z,15.22
2023-05-19T08:10:51.574Z,15.22
2023-05-19T08:13:19.174Z,15.23
2023-05-19T08:15:46.877Z,15.26
2023-05-19T08:18:14.759Z,15.21
2023-05-19T08:20:42.342Z,15.22
2023-05-19T08:23:09.919Z,15.22
2023-05-19T08:25:37.770Z,15.13
2023-05-19T08:28:05.371Z,15.08
2023-05-19T08:30:33.094Z,15.05
2023-05-19T08:33:01.479Z,15.02
2023-05-19T08:35:29.141Z,15.03
2023-05-19T08:37:56.835Z,15.05
2023-05-19T08:40:27.364Z,14.98
2023-05-19T08:42:54.971Z,15.00
2023-05-19T08:45:22.633Z,15.09
2023-05-19T08:47:51.530Z,15.18
2023-05-19T08:50:25.583Z,15.28
2023-05-19T08:53:02.459Z,15.42
2023-05-19T08:55:55.602Z,15.55
2023-05-19T08:58:23.652Z,15.93
2023-05-19T09:00:52.295Z,16.24
2023-05-19T09:03:23.886Z,16.55
2023-05-19T09:05:52.221Z,16.86
2023-05-19T09:08:20.039Z,17.20
2023-05-19T09:10:47.567Z,17.42
2023-05-19T09:13:15.980Z,17.51
2023-05-19T09:15:45.623Z,17.59
2023-05-19T09:18:15.257Z,17.50
2023-05-19T09:20:44.375Z,17.67
2023-05-19T09:23:16.607Z,17.76
2023-05-19T09:25:52.460Z,17.91
2023-05-19T09:28:31.653Z,18.18
2023-05-19T09:31:04.808Z,18.43
2023-05-19T09:33:37.524Z,18.48
2023-05-19T09:36:06.565Z,18.67
2023-05-19T09:38:35.835Z,18.94
2023-05-19T09:41:05.162Z,19.04
2023-05-19T09:43:34.907Z,19.22
2023-05-19T09:46:06.951Z,19.37
2023-05-19T09:48:36.696Z,19.30
2023-05-19T09:51:07.766Z,19.27
2023-05-19T09:53:35.979Z,19.27
2023-05-19T09:56:03.813Z,19.33
2023-05-19T09:58:35.434Z,19.51
2023-05-19T10:01:04.830Z,19.68
2023-05-19T10:03:33.900Z,19.71
2023-05-19T10:06:02.358Z,19.73
2023-05-19T10:08:31.003Z,19.69
2023-05-19T10:10:59.944Z,19.92
2023-05-19T10:13:29.623Z,20.05
2023-05-19T10:15:59.780Z,20.15
2023-05-19T10:18:29.805Z,20.13
2023-05-19T10:20:58.266Z,20.30
2023-05-19T10:23:26.733Z,20.34
2023-05-19T10:25:59.153Z,20.38
2023-05-19T10:28:35.641Z,20.47
2023-05-19T10:31:06.952Z,20.40
2023-05-19T10:34:19.163Z,20.47
2023-05-19T10:37:02.477Z,20.30
2023-05-19T10:39:37.591Z,20.32
2023-05-19T10:42:14.667Z,20.36
2023-05-19T10:44:54.192Z,20.44
2023-05-19T10:47:26.368Z,20.55
2023-05-19T10:49:54.657Z,20.67
2023-05-19T10:52:27.265Z,20.71
2023-05-19T10:54:54.997Z,20.67
2023-05-19T10:57:32.041Z,20.79
2023-05-19T11:00:08.243Z,20.85
2023-05-19T11:02:44.108Z,20.88
2023-05-19T11:05:15.097Z,20.95
2023-05-19T11:07:44.716Z,21.03
2023-05-19T11:10:12.814Z,20.92
2023-05-19T11:12:45.960Z,20.60
2023-05-19T11:15:15.875Z,20.66
2023-05-19T11:17:48.721Z,20.65
2023-05-19T11:20:24.315Z,20.57
2023-05-19T11:23:04.016Z,20.60
2023-05-19T11:25:41.717Z,20.30
2023-05-19T11:28:12.267Z,20.34
2023-05-19T11:30:43.464Z,20.35
2023-05-19T11:33:11.227Z,20.39
2023-05-19T11:35:39.892Z,20.51
2023-05-19T11:38:08.132Z,20.66
2023-05-19T11:40:36.444Z,20.89
2023-05-19T11:43:04.001Z,21.04
2023-05-19T11:45:33.114Z,21.25
2023-05-19T11:48:04.091Z,21.35
2023-05-19T11:50:32.888Z,21.49
2023-05-19T11:53:01.553Z,21.58
2023-05-19T11:55:30.138Z,21.87
2023-05-19T11:58:05.564Z,21.88
2023-05-19T12:00:40.397Z,22.04
2023-05-19T12:03:09.574Z,22.10
2023-05-19T12:05:43.084Z,22.13
2023-05-19T12:08:12.182Z,21.79
2023-05-19T12:10:40.238Z,21.62
2023-05-19T12:13:11.440Z,21.64
2023-05-19T12:15:39.647Z,21.76
2023-05-19T12:18:07.574Z,21.80
2023-05-19T12:20:36.159Z,21.70
2023-05-19T12:23:05.231Z,21.71
2023-05-19T12:25:33.207Z,21.63
2023-05-19T12:28:05.205Z,21.59
2023-05-19T12:30:34.700Z,21.49
2023-05-19T12:33:03.307Z,21.30
2023-05-19T12:35:36.385Z,21.29
2023-05-19T12:38:05.233Z,21.40
2023-05-19T12:40:37.789Z,21.63
2023-05-19T12:43:07.019Z,21.85
2023-05-19T12:45:38.636Z,21.82
2023-05-19T12:48:12.053Z,21.87
2023-05-19T12:50:39.801Z,21.72
2023-05-19T12:53:14.645Z,21.88
2023-05-19T12:55:44.671Z,22.27
2023-05-19T12:58:13.366Z,22.17
2023-05-19T13:00:43.582Z,22.19
2023-05-19T13:03:19.652Z,21.95
2023-05-19T13:05:50.707Z,21.80
2023-05-19T13:08:21.633Z,21.75
2023-05-19T13:10:50.065Z,21.73
2023-05-19T13:13:17.957Z,22.00
2023-05-19T13:15:49.172Z,21.99
2023-05-19T13:18:17.779Z,22.02
2023-05-19T13:20:47.164Z,21.96
2023-05-19T13:23:15.211Z,21.58
2023-05-19T13:25:43.881Z,21.95
2023-05-19T13:28:12.233Z,21.96
2023-05-19T13:30:41.748Z,21.97
2023-05-19T13:33:09.857Z,22.00
2023-05-19T13:35:38.153Z,21.97
2023-05-19T13:38:10.464Z,21.90
2023-05-19T13:40:39.890Z,21.87
2023-05-19T13:43:08.825Z,21.83
2023-05-19T13:45:36.918Z,21.81
2023-05-19T13:48:07.456Z,21.82
2023-05-19T13:50:35.380Z,21.81
2023-05-19T13:53:04.020Z,21.81
2023-05-19T13:55:32.853Z,21.75
2023-05-19T13:58:00.449Z,21.65
2023-05-19T14:00:28.054Z,21.71
2023-05-19T14:02:56.006Z,21.80
2023-05-19T14:05:23.616Z,21.81
2023-05-19T14:07:51.761Z,21.86
2023-05-19T14:10:19.785Z,21.88
2023-05-19T14:13:14.145Z,22.02
2023-05-19T14:15:38.100Z,22.19
2023-05-19T14:18:06.951Z,22.35
2023-05-19T14:20:35.774Z,22.18
2023-05-19T14:23:03.673Z,22.28
2023-05-19T14:25:31.311Z,22.49
2023-05-19T14:27:59.308Z,22.61
2023-05-19T14:30:26.935Z,22.51
2023-05-19T14:32:54.531Z,22.36
2023-05-19T14:35:23.106Z,22.53
2023-05-19T14:37:51.774Z,22.48
2023-05-19T14:40:19.447Z,22.28
2023-05-19T14:42:47.490Z,22.11
2023-05-19T14:45:15.250Z,22.04
2023-05-19T14:47:42.897Z,22.14
2023-05-19T14:50:10.739Z,22.12
2023-05-19T14:52:38.629Z,22.18
2023-05-19T14:55:06.520Z,22.25
2023-05-19T14:57:34.423Z,22.36
2023-05-19T15:00:02.404Z,22.39
2023-05-19T15:02:31.012Z,22.36
2023-05-19T15:05:00.154Z,22.37
2023-05-19T15:07:27.763Z,22.05
2023-05-19T15:09:55.620Z,22.08
2023-05-19T15:12:23.493Z,22.07
2023-05-19T15:14:51.213Z,22.08
2023-05-19T15:17:19.095Z,21.86
2023-05-19T15:19:47.085Z,21.76
2023-05-19T15:22:14.898Z,21.73
2023-05-19T15:24:42.704Z,21.80
2023-05-19T15:27:10.902Z,21.87
2023-05-19T15:29:38.471Z,21.88
2023-05-19T15:32:06.600Z,21.88
2023-05-19T15:34:34.661Z,21.79
2023-05-19T15:37:02.424Z,21.78
2023-05-19T15:39:31.454Z,21.81
2023-05-19T15:41:59.726Z,21.83
2023-05-19T15:44:29.008Z,21.84
2023-05-19T15:46:56.823Z,21.70
2023-05-19T15:49:25.364Z,21.73
2023-05-19T15:51:52.880Z,21.72
2023-05-19T15:54:20.476Z,21.78
2023-05-19T15:56:48.316Z,21.80
2023-05-19T15:59:15.848Z,21.78
2023-05-19T16:01:43.457Z,21.76
2023-05-19T16:04:11.466Z,21.74
2023-05-19T16:06:39.175Z,21.61
2023-05-19T16:09:06.752Z,21.46
2023-05-19T16:11:34.615Z,21.33
2023-05-19T16:14:02.178Z,21.17
2023-05-19T16:16:29.792Z,21.16
2023-05-19T16:18:57.721Z,21.11
2023-05-19T16:21:25.397Z,21.07
2023-05-19T16:23:52.993Z,21.11
2023-05-19T16:26:22.149Z,21.10
2023-05-19T16:28:49.656Z,21.07
2023-05-19T16:31:17.252Z,21.03
2023-05-19T16:33:45.352Z,20.92
2023-05-19T16:36:12.861Z,20.79
2023-05-19T16:38:40.461Z,20.69
2023-05-19T16:41:11.895Z,20.59
2023-05-19T16:43:39.552Z,20.61
2023-05-19T16:46:07.178Z,20.71
2023-05-19T16:48:35.172Z,20.73
2023-05-19T16:51:02.797Z,20.80
2023-05-19T16:53:31.198Z,20.85
2023-05-19T16:56:02.162Z,20.88
2023-05-19T16:58:31.058Z,20.93
2023-05-19T17:00:59.077Z,20.95
2023-05-19T17:03:26.714Z,21.02
2023-05-19T17:05:54.334Z,21.05
2023-05-19T17:08:22.175Z,21.07
2023-05-19T17:10:49.781Z,21.11
2023-05-19T17:13:17.481Z,21.10
2023-05-19T17:15:45.544Z,21.10
2023-05-19T17:18:13.289Z,21.09
2023-05-19T17:20:41.645Z,21.07
2023-05-19T17:23:09.653Z,21.03
2023-05-19T17:25:37.210Z,20.97
2023-05-19T17:28:04.831Z,20.91
2023-05-19T17:30:33.114Z,20.84
2023-05-19T17:33:00.929Z,20.78
2023-05-19T17:35:28.743Z,20.73
2023-05-19T17:37:57.937Z,20.67
2023-05-19T17:40:25.554Z,20.58
2023-05-19T17:42:53.128Z,20.53
2023-05-19T17:45:21.083Z,20.45
2023-05-19T17:47:48.745Z,20.42
2023-05-19T17:50:16.317Z,20.37
2023-05-19T17:52:44.927Z,20.29
2023-05-19T17:55:13.032Z,20.22
2023-05-19T17:57:45.031Z,20.15
2023-05-19T18:00:13.377Z,20.12
2023-05-19T18:02:41.517Z,20.09
2023-05-19T18:05:09.938Z,20.01
2023-05-19T18:07:39.656Z,19.96
2023-05-19T18:10:08.933Z,19.87
2023-05-19T18:12:36.735Z,19.73
2023-05-19T18:15:04.710Z,19.37
2023-05-19T18:17:32.666Z,19.01
2023-05-19T18:20:00.255Z,18.78
2023-05-19T18:22:27.791Z,18.56
2023-05-19T18:24:56.279Z,18.36
2023-05-19T18:27:23.900Z,18.20
2023-05-19T18:29:51.437Z,18.05
2023-05-19T18:32:19.362Z,17.93
2023-05-19T18:34:47.046Z,17.81
2023-05-19T18:37:14.793Z,17.73
2023-05-19T18:39:43.444Z,17.65
2023-05-19T18:42:11.421Z,17.53
2023-05-19T18:44:39.484Z,17.47
2023-05-19T18:47:23.780Z,17.40
2023-05-19T18:49:54.253Z,17.34
2023-05-19T18:52:22.209Z,17.20
2023-05-19T18:54:50.386Z,17.13
2023-05-19T18:57:17.946Z,17.04
2023-05-19T18:59:45.948Z,17.00
2023-05-19T19:02:13.519Z,16.90
2023-05-19T19:04:41.150Z,16.84
2023-05-19T19:07:08.985Z,16.78
2023-05-19T19:09:36.656Z,16.64
2023-05-19T19:12:04.324Z,16.57
2023-05-19T19:14:32.228Z,16.50
2023-05-19T19:16:59.871Z,16.43
2023-05-19T19:19:29.879Z,16.34
2023-05-19T19:21:57.865Z,16.30
2023-05-19T19:24:26.517Z,16.25
2023-05-19T19:26:54.120Z,16.16
2023-05-19T19:29:22.208Z,16.05
2023-05-19T19:31:49.906Z,16.00
2023-05-19T19:34:19.949Z,15.96
2023-05-19T19:36:48.057Z,15.88
2023-05-19T19:39:15.696Z,15.78
2023-05-19T19:41:43.354Z,15.62
2023-05-19T19:44:11.272Z,15.55
2023-05-19T19:46:38.855Z,15.47
2023-05-19T19:49:06.510Z,15.35
2023-05-19T19:51:34.454Z,15.37
2023-05-19T19:54:02.138Z,15.33
2023-05-19T19:56:29.728Z,15.34
2023-05-19T19:58:59.088Z,15.32
2023-05-19T20:01:27.930Z,15.32
2023-05-19T20:03:57.587Z,15.36
2023-05-19T20:06:25.157Z,15.28
2023-05-19T20:08:52.701Z,15.28
2023-05-19T20:11:22.914Z,15.30
2023-05-19T20:13:50.694Z,15.27
2023-05-19T20:16:18.466Z,15.28
2023-05-19T20:18:46.412Z,15.22
2023-05-19T20:21:13.967Z,15.21
2023-05-19T20:23:41.520Z,15.14
2023-05-19T20:26:12.992Z,15.10
2023-05-19T20:28:41.207Z,15.05
2023-05-19T20:31:09.125Z,15.04
2023-05-19T20:33:36.635Z,14.95
2023-05-19T20:36:06.188Z,14.91
2023-05-19T20:38:34.112Z,14.83
2023-05-19T20:41:02.140Z,14.83
2023-05-19T20:43:29.818Z,14.81
2023-05-19T20:45:57.978Z,14.80
2023-05-19T20:48:25.912Z,14.77
2023-05-19T20:50:54.384Z,14.72
2023-05-19T20:53:22.286Z,14.66
2023-05-19T20:55:49.968Z,14.64
2023-05-19T20:58:17.551Z,14.67
2023-05-19T21:00:45.546Z,14.72
2023-05-19T21:03:13.222Z,14.71
2023-05-19T21:05:40.945Z,14.61
2023-05-19T21:08:12.867Z,14.63
2023-05-19T21:10:40.994Z,14.59
2023-05-19T21:13:08.933Z,14.58
2023-05-19T21:15:36.479Z,14.53
2023-05-19T21:18:04.175Z,14.47
2023-05-19T21:20:32.273Z,14.44
2023-05-19T21:22:59.955Z,14.42
2023-05-19T21:25:27.956Z,14.38
2023-05-19T21:27:56.197Z,14.36
2023-05-19T21:30:24.581Z,14.34
2023-05-19T21:32:52.228Z,14.35
2023-05-19T21:35:20.157Z,14.27
2023-05-19T21:37:47.722Z,14.26
2023-05-19T21:40:15.249Z,14.17
2023-05-19T21:42:43.140Z,14.20
2023-05-19T21:45:11.126Z,14.18
2023-05-19T21:47:38.737Z,14.21
2023-05-19T21:50:07.454Z,14.18
2023-05-19T21:52:36.470Z,14.20
2023-05-19T21:55:04.394Z,14.18
2023-05-19T21:57:32.240Z,14.09
2023-05-19T21:59:59.766Z,14.07
2023-05-19T22:02:27.472Z,14.10
2023-05-19T22:04:55.349Z,14.08
2023-05-19T22:07:27.014Z,14.10
2023-05-19T22:09:55.026Z,13.99
2023-05-19T22:12:23.865Z,14.07
2023-05-19T22:14:51.439Z,14.05
2023-05-19T22:17:19.297Z,14.07
2023-05-19T22:19:46.885Z,14.03
2023-05-19T22:22:14.810Z,14.01
2023-05-19T22:24:43.220Z,14.04
2023-05-19T22:27:10.814Z,14.11
2023-05-19T22:29:41.401Z,14.10
2023-05-19T22:32:12.195Z,14.10
2023-05-19T22:34:40.314Z,14.13
2023-05-19T22:37:07.991Z,14.15
2023-05-19T22:39:35.881Z,14.22
2023-05-19T22:42:03.524Z,14.30
2023-05-19T22:44:31.263Z,14.37
2023-05-19T22:46:59.166Z,14.44
2023-05-19T22:49:27.519Z,14.47
2023-05-19T22:51:55.016Z,14.54
2023-05-19T22:54:23.062Z,14.55
2023-05-19T22:56:50.645Z,14.57
2023-05-19T22:59:18.270Z,14.57
2023-05-19T23:01:46.839Z,14.53
2023-05-19T23:04:14.681Z,14.55
2023-05-19T23:06:42.266Z,14.52
2023-05-19T23:09:10.148Z,14.54
2023-05-19T23:11:37.688Z,14.50
2023-05-19T23:14:05.310Z,14.44
2023-05-19T23:16:33.247Z,14.47
2023-05-19T23:19:01.053Z,14.41
2023-05-19T23:21:30.394Z,14.36
2023-05-19T23:23:58.502Z,14.26
2023-05-19T23:26:26.993Z,14.20
2023-05-19T23:28:54.616Z,14.17
2023-05-19T23:31:22.633Z,14.13
2023-05-19T23:33:50.524Z,14.14
2023-05-19T23:36:18.258Z,14.17
2023-05-19T23:38:46.116Z,14.19
2023-05-19T23:41:14.045Z,14.17
2023-05-19T23:43:41.520Z,14.16
2023-05-19T23:46:09.489Z,14.17
2023-05-19T23:48:37.083Z,14.17
2023-05-19T23:51:04.888Z,14.17
2023-05-19T23:53:32.839Z,14.12
2023-05-19T23:56:00.385Z,14.13
2023-05-19T23:58:28.039Z,14.11
